createdAt,value
2019-01-27T00:01:09.277Z,61.30
2019-01-27T00:03:36.882Z,58.70
2019-01-27T00:06:03.947Z,62.57
2019-01-27T00:08:30.955Z,54.93
2019-01-27T00:10:57.955Z,54.93
2019-01-27T00:13:24.898Z,61.07
2019-01-27T00:15:52.034Z,57.97
2019-01-27T00:18:19.041Z,62.33
2019-01-27T00:21:05.583Z,55.33
2019-01-27T00:23:32.585Z,61.57
2019-01-27T00:25:59.585Z,59.90
2019-01-27T00:28:26.464Z,56.93
2019-01-27T00:30:53.566Z,61.53
2019-01-27T00:33:20.478Z,59.53
2019-01-27T00:35:47.660Z,59.17
2019-01-27T00:38:14.658Z,63.87
2019-01-27T00:40:41.671Z,59.63
2019-01-27T00:43:08.821Z,57.77
2019-01-27T00:45:35.614Z,58.57
2019-01-27T00:48:02.626Z,58.20
2019-01-27T00:50:29.635Z,53.70
2019-01-27T00:52:56.619Z,58.00
2019-01-27T00:55:23.655Z,59.03
2019-01-27T00:57:50.709Z,56.97
2019-01-27T01:00:22.305Z,55.37
2019-01-27T01:02:49.323Z,54.73
2019-01-27T01:05:16.363Z,57.00
2019-01-27T01:07:44.014Z,57.03
2019-01-27T01:10:12.076Z,57.77
2019-01-27T01:12:39.122Z,59.13
2019-01-27T01:15:08.000Z,54.33
2019-01-27T01:17:34.999Z,57.33
2019-01-27T01:20:02.193Z,55.80
2019-01-27T01:22:29.110Z,60.73
2019-01-27T01:24:55.943Z,55.33
2019-01-27T01:27:22.991Z,63.20
2019-01-27T01:29:49.822Z,62.80
2019-01-27T01:32:16.844Z,62.97
2019-01-27T01:34:43.681Z,64.27
2019-01-27T01:37:10.743Z,61.80
2019-01-27T01:39:37.861Z,59.37
2019-01-27T01:42:04.918Z,66.03
2019-01-27T01:44:31.729Z,61.77
2019-01-27T01:46:58.637Z,59.40
2019-01-27T01:49:25.562Z,58.00
2019-01-27T01:51:52.487Z,59.47
2019-01-27T01:54:19.389Z,60.20
2019-01-27T01:56:46.329Z,61.43
2019-01-27T01:59:13.255Z,65.90
2019-01-27T02:01:40.249Z,56.53
2019-01-27T02:04:07.285Z,54.27
2019-01-27T02:06:34.289Z,58.10
2019-01-27T02:09:01.190Z,65.80
2019-01-27T02:11:28.138Z,55.53
2019-01-27T02:13:55.036Z,54.63
2019-01-27T02:16:21.855Z,57.97
2019-01-27T02:18:48.826Z,53.07
2019-01-27T02:21:15.837Z,52.33
2019-01-27T02:23:42.664Z,54.57
2019-01-27T02:26:09.697Z,50.47
2019-01-27T02:28:36.929Z,56.97
2019-01-27T02:31:04.393Z,46.23
2019-01-27T02:33:31.422Z,48.67
2019-01-27T02:35:58.333Z,44.87
2019-01-27T02:38:25.337Z,40.10
2019-01-27T02:40:52.310Z,38.07
2019-01-27T02:43:19.357Z,41.20
2019-01-27T02:45:46.151Z,39.13
2019-01-27T02:48:13.227Z,40.77
2019-01-27T02:50:40.228Z,35.13
2019-01-27T02:53:07.242Z,38.93
2019-01-27T02:55:34.328Z,37.97
2019-01-27T02:58:01.425Z,38.20
2019-01-27T03:00:28.435Z,41.20
2019-01-27T03:02:55.465Z,36.63
2019-01-27T03:05:57.037Z,37.83
2019-01-27T03:08:24.535Z,35.33
2019-01-27T03:10:51.445Z,40.53
2019-01-27T03:13:18.356Z,36.43
2019-01-27T03:15:45.397Z,37.37
2019-01-27T03:18:12.314Z,33.80
2019-01-27T03:20:39.226Z,35.70
2019-01-27T03:23:06.170Z,35.87
2019-01-27T03:25:33.189Z,44.17
2019-01-27T03:28:00.011Z,43.70
2019-01-27T03:30:27.127Z,43.57
2019-01-27T03:32:53.931Z,41.20
2019-01-27T03:35:20.813Z,39.40
2019-01-27T03:37:47.854Z,38.53
2019-01-27T03:40:15.078Z,36.30
2019-01-27T03:42:41.879Z,34.57
2019-01-27T03:45:11.054Z,40.70
2019-01-27T03:47:38.089Z,34.37
2019-01-27T03:50:07.676Z,41.90
2019-01-27T03:52:34.613Z,32.53
2019-01-27T03:55:01.628Z,41.03
2019-01-27T03:57:28.442Z,41.50
2019-01-27T03:59:55.479Z,34.07
2019-01-27T04:02:22.391Z,36.63
2019-01-27T04:04:49.322Z,40.70
2019-01-27T04:07:16.174Z,41.03
2019-01-27T04:09:42.987Z,41.97
2019-01-27T04:12:09.877Z,39.23
2019-01-27T04:14:36.832Z,34.57
2019-01-27T04:17:03.838Z,35.03
2019-01-27T04:19:30.858Z,37.33
2019-01-27T04:21:57.850Z,36.87
2019-01-27T04:24:24.691Z,38.73
2019-01-27T04:26:51.633Z,32.50
2019-01-27T04:29:18.810Z,33.10
2019-01-27T04:31:45.689Z,32.73
2019-01-27T04:34:12.578Z,32.70
2019-01-27T04:36:39.616Z,35.30
2019-01-27T04:39:08.968Z,32.77
2019-01-27T04:41:35.767Z,33.50
2019-01-27T04:44:03.042Z,30.80
2019-01-27T04:46:30.051Z,30.77
2019-01-27T04:48:57.083Z,28.53
2019-01-27T04:51:23.922Z,31.13
2019-01-27T04:53:50.813Z,25.67
2019-01-27T04:56:17.763Z,29.60
2019-01-27T04:58:44.819Z,29.47
2019-01-27T05:01:11.655Z,28.13
2019-01-27T05:04:04.194Z,31.13
2019-01-27T05:06:31.005Z,24.67
2019-01-27T05:08:58.122Z,25.67
2019-01-27T05:11:24.974Z,26.87
2019-01-27T05:13:51.880Z,22.47
2019-01-27T05:16:19.424Z,23.07
2019-01-27T05:18:46.270Z,27.17
2019-01-27T05:21:13.188Z,23.17
2019-01-27T05:23:40.006Z,22.63
2019-01-27T05:26:07.056Z,25.47
2019-01-27T05:28:33.954Z,22.20
2019-01-27T05:31:00.906Z,21.00
2019-01-27T05:33:27.923Z,23.27
2019-01-27T05:35:54.734Z,22.03
2019-01-27T05:38:21.537Z,21.20
2019-01-27T05:40:48.514Z,22.90
2019-01-27T05:43:15.487Z,20.43
2019-01-27T05:45:42.389Z,17.60
2019-01-27T05:48:09.213Z,20.27
2019-01-27T05:50:36.415Z,18.63
2019-01-27T05:53:03.432Z,19.60
2019-01-27T05:55:30.373Z,20.27
2019-01-27T05:57:59.209Z,18.87
2019-01-27T06:00:30.913Z,19.47
2019-01-27T06:02:57.866Z,18.13
2019-01-27T06:05:24.895Z,20.40
2019-01-27T06:07:51.726Z,18.27
2019-01-27T06:10:18.733Z,15.83
2019-01-27T06:12:45.630Z,14.60
2019-01-27T06:15:13.421Z,18.97
2019-01-27T06:17:40.390Z,17.10
2019-01-27T06:20:09.488Z,16.70
2019-01-27T06:22:36.477Z,17.63
2019-01-27T06:25:04.743Z,15.67
2019-01-27T06:27:31.550Z,16.53
2019-01-27T06:29:58.471Z,16.07
2019-01-27T06:32:46.903Z,17.20
2019-01-27T06:35:13.937Z,14.60
2019-01-27T06:37:40.755Z,15.30
2019-01-27T06:40:07.890Z,16.40
2019-01-27T06:42:34.710Z,15.73
2019-01-27T06:45:01.713Z,15.47
2019-01-27T06:47:28.674Z,15.93
2019-01-27T06:49:55.469Z,16.73
2019-01-27T06:52:22.270Z,18.73
2019-01-27T06:54:49.117Z,15.97
2019-01-27T06:57:16.122Z,15.50
2019-01-27T06:59:56.396Z,16.23
2019-01-27T07:02:45.950Z,16.03
2019-01-27T07:05:18.335Z,16.73
2019-01-27T07:07:54.769Z,16.33
2019-01-27T07:10:59.437Z,16.90
2019-01-27T07:13:46.090Z,15.73
2019-01-27T07:16:32.599Z,18.17
2019-01-27T07:19:18.119Z,17.07
2019-01-27T07:22:10.852Z,16.30
2019-01-27T07:24:48.149Z,16.10
2019-01-27T07:27:37.474Z,13.93
2019-01-27T07:30:26.000Z,14.67
2019-01-27T07:33:11.306Z,16.17
2019-01-27T07:35:50.673Z,13.80
2019-01-27T07:38:55.374Z,16.93
2019-01-27T07:41:33.085Z,15.20
2019-01-27T07:44:14.089Z,13.20
2019-01-27T07:47:12.969Z,15.27
2019-01-27T07:49:48.530Z,14.23
2019-01-27T07:52:50.354Z,13.23
2019-01-27T07:55:36.949Z,13.37
2019-01-27T07:58:13.089Z,12.27
2019-01-27T08:00:59.681Z,16.27
2019-01-27T08:03:44.813Z,13.00
2019-01-27T08:06:29.980Z,12.67
2019-01-27T08:09:25.314Z,14.37
2019-01-27T08:12:04.489Z,13.20
2019-01-27T08:14:45.725Z,15.77
2019-01-27T08:17:35.053Z,16.53
2019-01-27T08:20:12.795Z,17.30
2019-01-27T08:22:45.645Z,13.60
2019-01-27T08:25:31.586Z,12.13
2019-01-27T08:28:17.794Z,17.03
2019-01-27T08:30:52.781Z,13.47
2019-01-27T08:33:39.281Z,15.67
2019-01-27T08:36:24.378Z,13.27
2019-01-27T08:39:10.968Z,15.77
2019-01-27T08:42:03.508Z,14.00
2019-01-27T08:44:56.275Z,12.50
2019-01-27T08:47:23.126Z,12.60
2019-01-27T08:49:49.914Z,12.67
2019-01-27T08:52:16.773Z,14.17
2019-01-27T08:54:43.675Z,11.90
2019-01-27T08:57:10.498Z,13.40
2019-01-27T08:59:37.428Z,13.13
2019-01-27T09:02:36.263Z,12.47
2019-01-27T09:05:23.972Z,12.27
2019-01-27T09:08:13.247Z,13.73
2019-01-27T09:10:49.064Z,12.90
2019-01-27T09:13:33.966Z,10.93
2019-01-27T09:16:29.678Z,12.57
2019-01-27T09:19:15.173Z,11.83
2019-01-27T09:21:56.706Z,12.87
2019-01-27T09:24:41.627Z,12.17
2019-01-27T09:27:34.474Z,10.83
2019-01-27T09:30:33.475Z,13.43
2019-01-27T09:33:38.317Z,12.47
2019-01-27T09:36:23.769Z,11.90
2019-01-27T09:39:28.658Z,11.23
2019-01-27T09:42:07.490Z,14.90
2019-01-27T09:44:38.965Z,12.83
2019-01-27T09:47:12.850Z,11.43
2019-01-27T09:49:58.321Z,10.90
2019-01-27T09:52:38.486Z,11.17
2019-01-27T09:55:18.770Z,11.33
2019-01-27T09:57:58.167Z,10.57
2019-01-27T10:00:51.337Z,10.20
2019-01-27T10:03:31.769Z,9.97
2019-01-27T10:06:13.785Z,10.80
2019-01-27T10:09:09.405Z,10.93
2019-01-27T10:11:57.253Z,10.47
2019-01-27T10:14:32.656Z,8.30
2019-01-27T10:17:25.394Z,9.63
2019-01-27T10:20:03.380Z,8.70
2019-01-27T10:22:48.498Z,7.83
2019-01-27T10:25:39.355Z,8.40
2019-01-27T10:28:28.777Z,9.60
2019-01-27T10:31:05.383Z,7.93
2019-01-27T10:33:41.974Z,10.23
2019-01-27T10:36:27.294Z,8.23
2019-01-27T10:39:09.357Z,8.10
2019-01-27T10:41:44.168Z,8.70
2019-01-27T10:44:33.458Z,8.13
2019-01-27T10:47:22.821Z,6.30
2019-01-27T10:50:01.731Z,7.07
2019-01-27T10:52:54.315Z,9.23
2019-01-27T10:55:38.113Z,8.27
2019-01-27T10:58:27.628Z,5.33
2019-01-27T11:01:10.069Z,8.10
2019-01-27T11:03:46.179Z,6.97
2019-01-27T11:06:36.049Z,7.33
2019-01-27T11:09:41.544Z,8.47
2019-01-27T11:12:35.558Z,6.77
2019-01-27T11:15:23.095Z,7.77
2019-01-27T11:18:00.513Z,8.67
2019-01-27T11:20:39.975Z,6.83
2019-01-27T11:23:26.309Z,5.73
2019-01-27T11:26:11.013Z,10.00
2019-01-27T11:28:47.926Z,7.80
2019-01-27T11:31:29.231Z,6.90
2019-01-27T11:34:15.747Z,6.77
2019-01-27T11:36:59.254Z,5.60
2019-01-27T11:39:45.867Z,6.77
2019-01-27T11:42:32.422Z,8.03
2019-01-27T11:45:22.036Z,6.87
2019-01-27T11:48:08.531Z,6.47
2019-01-27T11:50:57.278Z,7.97
2019-01-27T11:53:24.317Z,7.70
2019-01-27T11:55:51.251Z,8.20
2019-01-27T11:58:18.083Z,4.33
2019-01-27T12:00:48.741Z,6.47
2019-01-27T12:03:15.639Z,5.43
2019-01-27T12:05:42.489Z,7.83
2019-01-27T12:08:09.426Z,7.43
2019-01-27T12:10:36.429Z,5.67
2019-01-27T12:13:03.667Z,5.07
2019-01-27T12:15:30.742Z,6.73
2019-01-27T12:17:57.761Z,6.47
2019-01-27T12:20:24.684Z,6.60
2019-01-27T12:22:51.693Z,6.37
2019-01-27T12:25:21.268Z,8.77
2019-01-27T12:27:47.971Z,7.83
2019-01-27T12:30:16.527Z,11.47
2019-01-27T12:32:43.535Z,7.77
2019-01-27T12:35:10.608Z,7.83
2019-01-27T12:37:37.663Z,6.43
2019-01-27T12:40:06.999Z,10.00
2019-01-27T12:42:33.868Z,9.67
2019-01-27T12:45:00.794Z,6.50
2019-01-27T12:47:47.246Z,6.83
2019-01-27T12:50:15.369Z,8.27
2019-01-27T12:52:42.515Z,7.40
2019-01-27T12:55:10.754Z,10.17
2019-01-27T12:57:37.728Z,10.50
2019-01-27T13:00:27.765Z,8.77
2019-01-27T13:02:54.707Z,8.67
2019-01-27T13:05:21.858Z,7.83
2019-01-27T13:07:48.806Z,9.63
2019-01-27T13:10:15.890Z,10.50
2019-01-27T13:12:42.998Z,12.53
2019-01-27T13:15:12.450Z,11.93
2019-01-27T13:17:39.382Z,9.23
2019-01-27T13:20:07.249Z,10.30
2019-01-27T13:22:35.642Z,14.40
2019-01-27T13:25:03.934Z,10.87
2019-01-27T13:27:30.857Z,12.20
2019-01-27T13:29:57.723Z,11.53
2019-01-27T13:32:24.743Z,14.43
2019-01-27T13:34:56.185Z,12.10
2019-01-27T13:37:20.430Z,12.30
2019-01-27T13:39:47.345Z,11.50
2019-01-27T13:42:14.266Z,8.93
2019-01-27T13:44:41.158Z,10.37
2019-01-27T13:47:08.195Z,11.87
2019-01-27T13:49:35.102Z,11.93
2019-01-27T13:52:04.006Z,10.77
2019-01-27T13:54:30.930Z,12.80
2019-01-27T13:56:58.003Z,11.87
2019-01-27T13:59:24.877Z,10.33
2019-01-27T14:01:51.694Z,11.17
2019-01-27T14:04:18.511Z,15.73
2019-01-27T14:06:45.574Z,9.53
2019-01-27T14:09:12.378Z,11.23
2019-01-27T14:11:39.398Z,10.17
2019-01-27T14:14:06.346Z,10.50
2019-01-27T14:16:33.272Z,10.47
2019-01-27T14:19:00.183Z,9.37
2019-01-27T14:21:27.256Z,10.53
2019-01-27T14:23:55.960Z,9.00
2019-01-27T14:26:22.928Z,12.17
2019-01-27T14:28:49.950Z,12.63
2019-01-27T14:31:16.858Z,11.03
2019-01-27T14:33:43.670Z,11.10
2019-01-27T14:36:10.612Z,13.43
2019-01-27T14:38:37.519Z,13.53
2019-01-27T14:41:06.299Z,11.87
2019-01-27T14:43:33.436Z,10.43
2019-01-27T14:46:00.441Z,12.13
2019-01-27T14:48:27.622Z,12.70
2019-01-27T14:50:54.661Z,10.53
2019-01-27T14:53:21.479Z,9.30
2019-01-27T14:55:49.422Z,10.30
2019-01-27T14:58:16.560Z,13.10
2019-01-27T15:00:43.880Z,11.20
2019-01-27T15:03:12.222Z,15.00
2019-01-27T15:05:39.262Z,15.30
2019-01-27T15:08:06.878Z,12.07
2019-01-27T15:10:33.920Z,14.10
2019-01-27T15:13:01.065Z,12.53
2019-01-27T15:15:28.000Z,12.87
2019-01-27T15:17:54.929Z,12.23
2019-01-27T15:20:30.305Z,10.73
2019-01-27T15:22:57.230Z,11.80
2019-01-27T15:25:24.231Z,12.37
2019-01-27T15:27:51.281Z,14.60
2019-01-27T15:30:23.408Z,12.90
2019-01-27T15:32:50.323Z,14.03
2019-01-27T15:35:17.365Z,14.20
2019-01-27T15:37:44.389Z,15.03
2019-01-27T15:40:11.675Z,18.50
2019-01-27T15:42:38.717Z,18.70
2019-01-27T15:45:07.151Z,22.37
2019-01-27T15:47:33.986Z,20.27
2019-01-27T15:50:01.041Z,25.53
2019-01-27T15:52:28.061Z,27.33
2019-01-27T15:54:54.888Z,19.53
2019-01-27T15:57:21.846Z,25.00
2019-01-27T15:59:48.649Z,29.23
2019-01-27T16:02:15.556Z,23.17
2019-01-27T16:04:42.489Z,22.73
2019-01-27T16:07:09.507Z,23.27
2019-01-27T16:09:36.398Z,28.60
2019-01-27T16:12:03.446Z,28.60
2019-01-27T16:14:30.267Z,28.60
2019-01-27T16:16:57.381Z,25.63
2019-01-27T16:19:24.489Z,29.13
2019-01-27T16:21:51.609Z,31.73
2019-01-27T16:24:23.293Z,30.10
2019-01-27T16:26:50.153Z,29.43
2019-01-27T16:29:19.097Z,31.27
2019-01-27T16:31:50.638Z,32.03
2019-01-27T16:34:30.093Z,33.10
2019-01-27T16:36:58.169Z,35.00
2019-01-27T16:39:24.976Z,37.33
2019-01-27T16:41:51.808Z,42.40
2019-01-27T16:44:18.817Z,37.13
2019-01-27T16:46:45.808Z,38.83
2019-01-27T16:49:12.899Z,41.30
2019-01-27T16:51:39.833Z,43.27
2019-01-27T16:54:06.849Z,44.03
2019-01-27T16:56:33.917Z,47.53
2019-01-27T16:59:00.868Z,46.30
2019-01-27T17:01:28.829Z,51.73
2019-01-27T17:03:58.537Z,52.70
2019-01-27T17:06:25.456Z,45.63
2019-01-27T17:08:52.427Z,44.30
2019-01-27T17:11:19.465Z,54.00
2019-01-27T17:13:46.493Z,47.53
2019-01-27T17:16:13.426Z,43.27
2019-01-27T17:18:44.532Z,55.10
2019-01-27T17:21:11.477Z,48.37
2019-01-27T17:23:38.282Z,51.20
2019-01-27T17:26:05.385Z,39.77
2019-01-27T17:28:32.562Z,41.83
2019-01-27T17:30:59.618Z,43.17
2019-01-27T17:33:26.999Z,41.90
2019-01-27T17:35:54.176Z,47.53
2019-01-27T17:38:21.202Z,39.67
2019-01-27T17:40:48.170Z,42.47
2019-01-27T17:43:14.969Z,44.30
2019-01-27T17:45:42.202Z,39.53
2019-01-27T17:48:09.252Z,39.73
2019-01-27T17:50:36.365Z,45.10
2019-01-27T17:53:04.122Z,47.43
2019-01-27T17:55:43.860Z,47.87
2019-01-27T17:58:34.941Z,44.00
2019-01-27T18:01:20.702Z,44.47
2019-01-27T18:04:05.843Z,37.77
2019-01-27T18:07:04.947Z,42.70
2019-01-27T18:09:41.111Z,49.47
2019-01-27T18:12:26.355Z,49.10
2019-01-27T18:14:55.899Z,55.07
2019-01-27T18:17:22.701Z,48.73
2019-01-27T18:19:51.778Z,47.50
2019-01-27T18:22:18.770Z,51.30
2019-01-27T18:24:45.603Z,50.10
2019-01-27T18:27:12.437Z,53.67
2019-01-27T18:29:39.464Z,56.57
2019-01-27T18:32:06.461Z,59.63
2019-01-27T18:34:33.438Z,54.87
2019-01-27T18:37:00.546Z,66.67
2019-01-27T18:39:27.368Z,53.73
2019-01-27T18:41:54.529Z,62.00
2019-01-27T18:44:21.333Z,58.57
2019-01-27T18:46:49.494Z,55.40
2019-01-27T18:49:16.884Z,58.03
2019-01-27T18:51:45.758Z,60.67
2019-01-27T18:54:31.446Z,60.73
2019-01-27T18:57:13.616Z,72.67
2019-01-27T18:59:54.803Z,71.80
2019-01-27T19:02:41.143Z,67.73
2019-01-27T19:05:41.408Z,72.33
2019-01-27T19:08:28.299Z,65.27
2019-01-27T19:11:19.029Z,73.67
2019-01-27T19:14:08.005Z,75.87
2019-01-27T19:16:44.165Z,69.33
2019-01-27T19:19:40.022Z,63.40
2019-01-27T19:22:33.766Z,58.47
2019-01-27T19:25:26.477Z,58.30
2019-01-27T19:28:11.790Z,59.10
2019-01-27T19:31:03.045Z,74.33
2019-01-27T19:33:37.797Z,75.53
2019-01-27T19:36:27.877Z,83.07
2019-01-27T19:39:07.573Z,74.00
2019-01-27T19:41:53.280Z,83.27
2019-01-27T19:44:37.190Z,83.37
2019-01-27T19:47:13.995Z,77.47
2019-01-27T19:50:13.041Z,66.17
2019-01-27T19:53:00.126Z,71.10
2019-01-27T19:55:47.374Z,82.67
2019-01-27T19:58:31.301Z,75.13
2019-01-27T20:01:18.611Z,102.03
2019-01-27T20:04:04.124Z,91.47
2019-01-27T20:06:52.126Z,104.03
2019-01-27T20:09:33.891Z,92.97
2019-01-27T20:12:30.190Z,91.63
2019-01-27T20:15:03.370Z,106.73
2019-01-27T20:17:50.591Z,108.87
2019-01-27T20:20:40.853Z,101.50
2019-01-27T20:23:26.815Z,96.70
2019-01-27T20:26:11.199Z,96.90
2019-01-27T20:29:14.310Z,93.30
2019-01-27T20:32:08.437Z,80.97
2019-01-27T20:34:55.689Z,87.20
2019-01-27T20:37:44.826Z,108.50
2019-01-27T20:40:37.899Z,99.10
2019-01-27T20:43:13.477Z,88.20
2019-01-27T20:45:55.177Z,97.73
2019-01-27T20:48:40.458Z,89.77
2019-01-27T20:51:26.186Z,112.13
2019-01-27T20:54:04.058Z,89.10
2019-01-27T20:56:50.227Z,101.17
2019-01-27T20:59:38.708Z,99.77
2019-01-27T21:02:38.513Z,92.17
2019-01-27T21:05:44.426Z,95.47
2019-01-27T21:08:34.626Z,82.97
2019-01-27T21:11:36.298Z,94.50
2019-01-27T21:14:19.726Z,91.50
2019-01-27T21:17:08.417Z,80.97
2019-01-27T21:19:45.387Z,88.50
2019-01-27T21:22:13.627Z,89.40
2019-01-27T21:24:42.366Z,82.67
2019-01-27T21:27:10.469Z,77.77
2019-01-27T21:29:38.836Z,73.00
2019-01-27T21:32:06.501Z,72.03
2019-01-27T21:34:34.663Z,78.73
2019-01-27T21:37:02.141Z,68.80
2019-01-27T21:39:29.153Z,75.93
2019-01-27T21:41:56.089Z,66.53
2019-01-27T21:44:22.993Z,71.67
2019-01-27T21:46:49.906Z,57.67
2019-01-27T21:49:16.859Z,64.93
2019-01-27T21:51:43.654Z,68.53
2019-01-27T21:54:10.490Z,67.73
2019-01-27T21:56:38.656Z,75.33
2019-01-27T21:59:05.570Z,61.23
2019-01-27T22:01:32.547Z,67.73
2019-01-27T22:03:59.373Z,70.30
2019-01-27T22:06:26.398Z,73.40
2019-01-27T22:08:53.194Z,71.97
2019-01-27T22:11:20.039Z,63.77
2019-01-27T22:13:47.087Z,63.07
2019-01-27T22:16:14.074Z,59.97
2019-01-27T22:18:40.959Z,64.97
2019-01-27T22:21:07.985Z,81.07
2019-01-27T22:23:35.011Z,72.93
2019-01-27T22:26:01.967Z,78.63
2019-01-27T22:28:28.899Z,81.00
2019-01-27T22:30:55.713Z,71.73
2019-01-27T22:33:22.766Z,77.23
2019-01-27T22:35:49.666Z,77.77
2019-01-27T22:38:16.584Z,105.60
2019-01-27T22:40:43.445Z,120.00
2019-01-27T22:43:10.270Z,136.43
2019-01-27T22:45:37.189Z,141.63
2019-01-27T22:48:04.234Z,166.20
2019-01-27T22:50:33.338Z,133.97
2019-01-27T22:53:00.285Z,164.20
2019-01-27T22:55:27.769Z,180.20
2019-01-27T22:57:54.798Z,147.60
2019-01-27T23:00:59.901Z,159.30
2019-01-27T23:03:29.115Z,159.80
2019-01-27T23:05:56.054Z,156.60
2019-01-27T23:08:23.118Z,173.77
2019-01-27T23:10:50.085Z,226.07
2019-01-27T23:13:17.138Z,210.13
2019-01-27T23:15:44.198Z,208.23
2019-01-27T23:18:11.097Z,186.53
2019-01-27T23:20:38.054Z,188.23
2019-01-27T23:23:05.072Z,155.70
2019-01-27T23:25:31.898Z,138.93
2019-01-27T23:27:58.959Z,90.97
2019-01-27T23:30:25.906Z,122.57
2019-01-27T23:32:52.828Z,97.33
2019-01-27T23:35:19.747Z,105.80
2019-01-27T23:37:48.817Z,99.03
2019-01-27T23:40:15.851Z,105.27
2019-01-27T23:42:42.898Z,97.80
2019-01-27T23:45:10.173Z,87.07
2019-01-27T23:47:37.109Z,88.53
2019-01-27T23:50:04.550Z,93.97
2019-01-27T23:52:31.521Z,95.50
2019-01-27T23:54:58.477Z,91.20
2019-01-27T23:57:25.308Z,83.00
2019-01-27T23:59:52.250Z,75.83
